sensor_id;sensor_type;location;lat;lon;timestamp;P1;durP1;ratioP1;P2;durP2;ratioP2
41514;SDS011;27247;48.020;16.720;2022-09-13T00:02:50;6.10;;;4.65;;
41514;SDS011;27247;48.020;16.720;2022-09-13T00:07:00;6.23;;;5.27;;
41514;SDS011;27247;48.020;16.720;2022-09-13T00:11:18;5.40;;;4.13;;
41514;SDS011;27247;48.020;16.720;2022-09-13T00:15:31;5.90;;;4.10;;
41514;SDS011;27247;48.020;16.720;2022-09-13T00:19:41;5.88;;;3.97;;
41514;SDS011;27247;48.020;16.720;2022-09-13T00:23:52;5.80;;;4.10;;
41514;SDS011;27247;48.020;16.720;2022-09-13T00:28:04;7.22;;;4.88;;
41514;SDS011;27247;48.020;16.720;2022-09-13T00:32:14;6.90;;;4.65;;
41514;SDS011;27247;48.020;16.720;2022-09-13T00:36:25;5.75;;;4.53;;
41514;SDS011;27247;48.020;16.720;2022-09-13T00:40:36;7.20;;;4.13;;
41514;SDS011;27247;48.020;16.720;2022-09-13T00:44:57;6.93;;;4.60;;
41514;SDS011;27247;48.020;16.720;2022-09-13T00:53:38;5.88;;;4.32;;
41514;SDS011;27247;48.020;16.720;2022-09-13T00:57:52;6.85;;;4.15;;
41514;SDS011;27247;48.020;16.720;2022-09-13T01:02:09;5.50;;;3.95;;
41514;SDS011;27247;48.020;16.720;2022-09-13T01:06:24;4.63;;;4.15;;
41514;SDS011;27247;48.020;16.720;2022-09-13T01:10:42;6.32;;;4.50;;
41514;SDS011;27247;48.020;16.720;2022-09-13T01:14:54;9.15;;;4.38;;
41514;SDS011;27247;48.020;16.720;2022-09-13T01:19:08;9.40;;;4.50;;
41514;SDS011;27247;48.020;16.720;2022-09-13T01:23:23;5.10;;;4.03;;
41514;SDS011;27247;48.020;16.720;2022-09-13T01:37:00;5.80;;;4.43;;
41514;SDS011;27247;48.020;16.720;2022-09-13T01:46:17;4.00;;;3.55;;
41514;SDS011;27247;48.020;16.720;2022-09-13T02:00:07;5.70;;;3.67;;
41514;SDS011;27247;48.020;16.720;2022-09-13T02:04:19;5.28;;;3.65;;
41514;SDS011;27247;48.020;16.720;2022-09-13T02:08:40;5.70;;;3.50;;
41514;SDS011;27247;48.020;16.720;2022-09-13T02:12:54;4.93;;;3.85;;
41514;SDS011;27247;48.020;16.720;2022-09-13T02:17:17;6.78;;;3.40;;
41514;SDS011;27247;48.020;16.720;2022-09-13T02:21:34;8.70;;;3.67;;
41514;SDS011;27247;48.020;16.720;2022-09-13T02:25:50;4.35;;;3.63;;
41514;SDS011;27247;48.020;16.720;2022-09-13T02:30:07;5.95;;;4.22;;
41514;SDS011;27247;48.020;16.720;2022-09-13T02:34:31;5.38;;;3.95;;
41514;SDS011;27247;48.020;16.720;2022-09-13T02:38:50;8.32;;;3.70;;
41514;SDS011;27247;48.020;16.720;2022-09-13T02:43:03;8.00;;;3.55;;
41514;SDS011;27247;48.020;16.720;2022-09-13T02:47:34;5.22;;;4.13;;
41514;SDS011;27247;48.020;16.720;2022-09-13T02:56:28;5.47;;;3.85;;
41514;SDS011;27247;48.020;16.720;2022-09-13T03:00:47;4.68;;;3.60;;
41514;SDS011;27247;48.020;16.720;2022-09-13T03:04:58;7.20;;;3.58;;
41514;SDS011;27247;48.020;16.720;2022-09-13T03:09:09;7.80;;;3.83;;
41514;SDS011;27247;48.020;16.720;2022-09-13T03:17:45;6.22;;;3.90;;
41514;SDS011;27247;48.020;16.720;2022-09-13T03:26:40;6.78;;;3.55;;
41514;SDS011;27247;48.020;16.720;2022-09-13T03:31:07;5.00;;;2.97;;
41514;SDS011;27247;48.020;16.720;2022-09-13T03:40:06;7.55;;;3.10;;
41514;SDS011;27247;48.020;16.720;2022-09-13T03:44:22;5.63;;;3.47;;
41514;SDS011;27247;48.020;16.720;2022-09-13T03:48:35;5.70;;;4.07;;
41514;SDS011;27247;48.020;16.720;2022-09-13T03:52:50;5.57;;;3.70;;
41514;SDS011;27247;48.020;16.720;2022-09-13T04:01:21;5.68;;;4.10;;
41514;SDS011;27247;48.020;16.720;2022-09-13T04:05:32;4.78;;;4.20;;
41514;SDS011;27247;48.020;16.720;2022-09-13T04:09:46;7.10;;;4.20;;
41514;SDS011;27247;48.020;16.720;2022-09-13T04:13:57;7.63;;;4.13;;
41514;SDS011;27247;48.020;16.720;2022-09-13T04:18:08;4.90;;;3.85;;
41514;SDS011;27247;48.020;16.720;2022-09-13T04:22:19;6.82;;;4.35;;
41514;SDS011;27247;48.020;16.720;2022-09-13T04:26:29;5.80;;;4.20;;
41514;SDS011;27247;48.020;16.720;2022-09-13T04:30:42;11.43;;;5.47;;
41514;SDS011;27247;48.020;16.720;2022-09-13T04:34:57;7.95;;;4.85;;
41514;SDS011;27247;48.020;16.720;2022-09-13T04:39:07;7.83;;;4.83;;
41514;SDS011;27247;48.020;16.720;2022-09-13T04:43:17;5.70;;;3.83;;
41514;SDS011;27247;48.020;16.720;2022-09-13T04:47:28;5.53;;;4.27;;
41514;SDS011;27247;48.020;16.720;2022-09-13T04:51:38;7.93;;;5.07;;
41514;SDS011;27247;48.020;16.720;2022-09-13T04:55:48;9.93;;;6.37;;
41514;SDS011;27247;48.020;16.720;2022-09-13T04:59:59;7.57;;;4.10;;
41514;SDS011;27247;48.020;16.720;2022-09-13T05:04:09;6.00;;;3.80;;
41514;SDS011;27247;48.020;16.720;2022-09-13T05:08:19;5.70;;;4.22;;
41514;SDS011;27247;48.020;16.720;2022-09-13T05:12:30;7.13;;;4.37;;
41514;SDS011;27247;48.020;16.720;2022-09-13T05:16:40;6.87;;;4.37;;
41514;SDS011;27247;48.020;16.720;2022-09-13T05:20:52;7.90;;;4.53;;
41514;SDS011;27247;48.020;16.720;2022-09-13T05:25:04;7.70;;;4.78;;
41514;SDS011;27247;48.020;16.720;2022-09-13T05:29:15;6.85;;;4.68;;
41514;SDS011;27247;48.020;16.720;2022-09-13T05:33:26;6.47;;;4.50;;
41514;SDS011;27247;48.020;16.720;2022-09-13T05:37:38;9.32;;;5.20;;
41514;SDS011;27247;48.020;16.720;2022-09-13T05:41:48;7.85;;;4.75;;
41514;SDS011;27247;48.020;16.720;2022-09-13T05:46:00;5.87;;;4.83;;
41514;SDS011;27247;48.020;16.720;2022-09-13T05:50:11;6.07;;;4.53;;
41514;SDS011;27247;48.020;16.720;2022-09-13T05:54:22;11.38;;;5.00;;
41514;SDS011;27247;48.020;16.720;2022-09-13T05:58:32;8.80;;;5.30;;
41514;SDS011;27247;48.020;16.720;2022-09-13T06:02:44;12.90;;;5.75;;
41514;SDS011;27247;48.020;16.720;2022-09-13T06:06:54;8.87;;;6.30;;
41514;SDS011;27247;48.020;16.720;2022-09-13T06:11:06;9.77;;;6.13;;
41514;SDS011;27247;48.020;16.720;2022-09-13T06:15:18;8.25;;;5.57;;
41514;SDS011;27247;48.020;16.720;2022-09-13T06:19:28;8.27;;;6.00;;
41514;SDS011;27247;48.020;16.720;2022-09-13T06:23:38;10.47;;;6.53;;
41514;SDS011;27247;48.020;16.720;2022-09-13T06:27:49;9.20;;;6.07;;
41514;SDS011;27247;48.020;16.720;2022-09-13T06:31:59;7.17;;;5.53;;
41514;SDS011;27247;48.020;16.720;2022-09-13T06:36:11;9.83;;;6.83;;
41514;SDS011;27247;48.020;16.720;2022-09-13T06:40:27;11.27;;;6.20;;
41514;SDS011;27247;48.020;16.720;2022-09-13T06:44:37;6.97;;;5.88;;
41514;SDS011;27247;48.020;16.720;2022-09-13T06:48:48;9.30;;;5.07;;
41514;SDS011;27247;48.020;16.720;2022-09-13T06:52:58;10.68;;;4.85;;
41514;SDS011;27247;48.020;16.720;2022-09-13T06:57:08;11.47;;;5.20;;
41514;SDS011;27247;48.020;16.720;2022-09-13T07:01:20;13.60;;;5.50;;
41514;SDS011;27247;48.020;16.720;2022-09-13T07:05:37;5.80;;;4.30;;
41514;SDS011;27247;48.020;16.720;2022-09-13T07:09:48;7.20;;;4.20;;
41514;SDS011;27247;48.020;16.720;2022-09-13T07:13:58;6.77;;;3.50;;
41514;SDS011;27247;48.020;16.720;2022-09-13T07:18:09;5.53;;;3.90;;
41514;SDS011;27247;48.020;16.720;2022-09-13T07:22:19;7.37;;;3.90;;
41514;SDS011;27247;48.020;16.720;2022-09-13T07:26:30;6.90;;;3.30;;
41514;SDS011;27247;48.020;16.720;2022-09-13T07:30:40;5.07;;;3.38;;
41514;SDS011;27247;48.020;16.720;2022-09-13T07:34:50;7.77;;;4.10;;
41514;SDS011;27247;48.020;16.720;2022-09-13T07:39:01;6.27;;;3.70;;
41514;SDS011;27247;48.020;16.720;2022-09-13T07:43:12;5.65;;;3.60;;
41514;SDS011;27247;48.020;16.720;2022-09-13T07:47:23;3.77;;;3.10;;
41514;SDS011;27247;48.020;16.720;2022-09-13T07:51:37;4.17;;;2.83;;
41514;SDS011;27247;48.020;16.720;2022-09-13T07:55:48;4.13;;;3.15;;
41514;SDS011;27247;48.020;16.720;2022-09-13T07:59:58;12.03;;;3.37;;
41514;SDS011;27247;48.020;16.720;2022-09-13T08:04:10;4.40;;;2.70;;
41514;SDS011;27247;48.020;16.720;2022-09-13T08:08:22;6.53;;;2.80;;
41514;SDS011;27247;48.020;16.720;2022-09-13T08:12:32;9.57;;;2.90;;
41514;SDS011;27247;48.020;16.720;2022-09-13T08:16:43;5.57;;;2.93;;
41514;SDS011;27247;48.020;16.720;2022-09-13T08:20:57;4.60;;;3.00;;
41514;SDS011;27247;48.020;16.720;2022-09-13T08:25:08;4.18;;;2.78;;
41514;SDS011;27247;48.020;16.720;2022-09-13T08:29:18;3.53;;;2.40;;
41514;SDS011;27247;48.020;16.720;2022-09-13T08:33:29;8.23;;;2.38;;
41514;SDS011;27247;48.020;16.720;2022-09-13T08:37:39;5.35;;;2.22;;
41514;SDS011;27247;48.020;16.720;2022-09-13T08:41:57;4.57;;;2.80;;
41514;SDS011;27247;48.020;16.720;2022-09-13T08:46:23;6.85;;;2.50;;
41514;SDS011;27247;48.020;16.720;2022-09-13T08:50:42;3.60;;;2.20;;
41514;SDS011;27247;48.020;16.720;2022-09-13T08:54:54;4.55;;;2.55;;
41514;SDS011;27247;48.020;16.720;2022-09-13T09:08:21;3.33;;;2.17;;
41514;SDS011;27247;48.020;16.720;2022-09-13T09:12:45;3.60;;;2.47;;
41514;SDS011;27247;48.020;16.720;2022-09-13T09:17:03;3.17;;;2.08;;
41514;SDS011;27247;48.020;16.720;2022-09-13T09:21:21;3.38;;;1.83;;
41514;SDS011;27247;48.020;16.720;2022-09-13T09:25:31;4.63;;;2.30;;
41514;SDS011;27247;48.020;16.720;2022-09-13T09:29:44;3.72;;;2.35;;
41514;SDS011;27247;48.020;16.720;2022-09-13T09:34:04;2.75;;;2.03;;
41514;SDS011;27247;48.020;16.720;2022-09-13T09:38:46;7.60;;;2.90;;
41514;SDS011;27247;48.020;16.720;2022-09-13T09:42:56;3.88;;;2.75;;
41514;SDS011;27247;48.020;16.720;2022-09-13T09:47:24;5.57;;;3.10;;
41514;SDS011;27247;48.020;16.720;2022-09-13T09:51:37;4.70;;;2.67;;
41514;SDS011;27247;48.020;16.720;2022-09-13T10:00:32;5.53;;;2.70;;
41514;SDS011;27247;48.020;16.720;2022-09-13T10:04:54;5.50;;;2.92;;
41514;SDS011;27247;48.020;16.720;2022-09-13T10:13:22;4.38;;;2.60;;
41514;SDS011;27247;48.020;16.720;2022-09-13T10:17:33;5.18;;;2.35;;
41514;SDS011;27247;48.020;16.720;2022-09-13T10:21:44;3.20;;;2.10;;
41514;SDS011;27247;48.020;16.720;2022-09-13T10:26:09;3.22;;;2.40;;
41514;SDS011;27247;48.020;16.720;2022-09-13T10:30:34;4.90;;;2.60;;
41514;SDS011;27247;48.020;16.720;2022-09-13T10:34:49;4.43;;;2.95;;
41514;SDS011;27247;48.020;16.720;2022-09-13T10:39:04;2.90;;;2.33;;
41514;SDS011;27247;48.020;16.720;2022-09-13T10:43:27;2.92;;;2.30;;
41514;SDS011;27247;48.020;16.720;2022-09-13T10:47:44;3.75;;;2.65;;
41514;SDS011;27247;48.020;16.720;2022-09-13T10:51:57;2.55;;;2.22;;
41514;SDS011;27247;48.020;16.720;2022-09-13T10:56:25;5.07;;;2.53;;
41514;SDS011;27247;48.020;16.720;2022-09-13T11:00:49;2.57;;;2.23;;
41514;SDS011;27247;48.020;16.720;2022-09-13T11:09:42;3.78;;;2.70;;
41514;SDS011;27247;48.020;16.720;2022-09-13T11:28:24;6.72;;;2.30;;
41514;SDS011;27247;48.020;16.720;2022-09-13T11:37:22;4.07;;;2.33;;
41514;SDS011;27247;48.020;16.720;2022-09-13T11:55:24;2.78;;;2.45;;
41514;SDS011;27247;48.020;16.720;2022-09-13T11:59:41;2.95;;;2.33;;
41514;SDS011;27247;48.020;16.720;2022-09-13T12:08:24;2.47;;;1.88;;
41514;SDS011;27247;48.020;16.720;2022-09-13T12:12:41;4.65;;;2.15;;
41514;SDS011;27247;48.020;16.720;2022-09-13T12:16:54;2.60;;;2.38;;
41514;SDS011;27247;48.020;16.720;2022-09-13T12:21:09;2.00;;;1.88;;
41514;SDS011;27247;48.020;16.720;2022-09-13T12:25:23;1.92;;;1.80;;
41514;SDS011;27247;48.020;16.720;2022-09-13T12:29:43;2.38;;;1.95;;
41514;SDS011;27247;48.020;16.720;2022-09-13T12:33:59;3.30;;;2.08;;
41514;SDS011;27247;48.020;16.720;2022-09-13T12:47:23;2.25;;;2.05;;
41514;SDS011;27247;48.020;16.720;2022-09-13T13:05:29;1.65;;;1.55;;
41514;SDS011;27247;48.020;16.720;2022-09-13T13:09:42;2.35;;;2.15;;
41514;SDS011;27247;48.020;16.720;2022-09-13T13:13:59;1.42;;;1.33;;
41514;SDS011;27247;48.020;16.720;2022-09-13T13:18:26;1.98;;;1.63;;
41514;SDS011;27247;48.020;16.720;2022-09-13T13:26:54;2.20;;;1.70;;
41514;SDS011;27247;48.020;16.720;2022-09-13T13:31:06;3.35;;;2.30;;
41514;SDS011;27247;48.020;16.720;2022-09-13T13:35:29;2.38;;;2.17;;
41514;SDS011;27247;48.020;16.720;2022-09-13T13:40:26;2.65;;;1.92;;
41514;SDS011;27247;48.020;16.720;2022-09-13T13:48:34;2.50;;;2.30;;
41514;SDS011;27247;48.020;16.720;2022-09-13T13:52:51;2.45;;;1.70;;
41514;SDS011;27247;48.020;16.720;2022-09-13T13:57:04;4.75;;;2.17;;
41514;SDS011;27247;48.020;16.720;2022-09-13T14:01:31;4.63;;;2.33;;
41514;SDS011;27247;48.020;16.720;2022-09-13T14:05:47;1.85;;;1.75;;
41514;SDS011;27247;48.020;16.720;2022-09-13T14:14:30;2.17;;;1.77;;
41514;SDS011;27247;48.020;16.720;2022-09-13T14:23:17;3.28;;;1.77;;
41514;SDS011;27247;48.020;16.720;2022-09-13T14:27:30;4.20;;;2.38;;
41514;SDS011;27247;48.020;16.720;2022-09-13T14:31:45;3.47;;;2.15;;
41514;SDS011;27247;48.020;16.720;2022-09-13T14:36:01;2.25;;;2.05;;
41514;SDS011;27247;48.020;16.720;2022-09-13T14:40:25;5.47;;;2.03;;
41514;SDS011;27247;48.020;16.720;2022-09-13T14:44:36;2.88;;;2.55;;
41514;SDS011;27247;48.020;16.720;2022-09-13T14:48:59;2.72;;;2.53;;
41514;SDS011;27247;48.020;16.720;2022-09-13T14:53:17;3.67;;;2.25;;
41514;SDS011;27247;48.020;16.720;2022-09-13T14:57:37;3.35;;;2.25;;
41514;SDS011;27247;48.020;16.720;2022-09-13T15:01:52;3.70;;;2.30;;
41514;SDS011;27247;48.020;16.720;2022-09-13T15:06:03;5.13;;;2.17;;
41514;SDS011;27247;48.020;16.720;2022-09-13T15:14:31;2.75;;;2.30;;
41514;SDS011;27247;48.020;16.720;2022-09-13T15:18:46;4.15;;;2.08;;
41514;SDS011;27247;48.020;16.720;2022-09-13T15:22:58;2.30;;;2.10;;
41514;SDS011;27247;48.020;16.720;2022-09-13T15:27:15;3.53;;;2.03;;
41514;SDS011;27247;48.020;16.720;2022-09-13T15:31:34;2.78;;;2.17;;
41514;SDS011;27247;48.020;16.720;2022-09-13T15:35:45;2.35;;;1.95;;
41514;SDS011;27247;48.020;16.720;2022-09-13T15:40:13;3.63;;;2.05;;
41514;SDS011;27247;48.020;16.720;2022-09-13T15:44:29;2.88;;;2.22;;
41514;SDS011;27247;48.020;16.720;2022-09-13T15:48:43;2.25;;;2.05;;
41514;SDS011;27247;48.020;16.720;2022-09-13T15:53:04;4.75;;;2.05;;
41514;SDS011;27247;48.020;16.720;2022-09-13T15:57:24;4.03;;;2.08;;
41514;SDS011;27247;48.020;16.720;2022-09-13T16:01:36;3.75;;;2.58;;
41514;SDS011;27247;48.020;16.720;2022-09-13T16:05:46;3.40;;;2.83;;
41514;SDS011;27247;48.020;16.720;2022-09-13T16:09:57;5.80;;;2.27;;
41514;SDS011;27247;48.020;16.720;2022-09-13T16:14:07;9.52;;;3.05;;
41514;SDS011;27247;48.020;16.720;2022-09-13T16:18:18;8.57;;;3.23;;
41514;SDS011;27247;48.020;16.720;2022-09-13T16:22:28;5.27;;;2.80;;
41514;SDS011;27247;48.020;16.720;2022-09-13T16:26:38;3.20;;;2.27;;
41514;SDS011;27247;48.020;16.720;2022-09-13T16:30:50;4.13;;;2.67;;
41514;SDS011;27247;48.020;16.720;2022-09-13T16:35:01;4.50;;;2.92;;
41514;SDS011;27247;48.020;16.720;2022-09-13T16:39:11;4.30;;;3.63;;
41514;SDS011;27247;48.020;16.720;2022-09-13T16:43:21;6.27;;;3.40;;
41514;SDS011;27247;48.020;16.720;2022-09-13T16:47:32;4.27;;;3.10;;
41514;SDS011;27247;48.020;16.720;2022-09-13T16:51:42;4.25;;;2.75;;
41514;SDS011;27247;48.020;16.720;2022-09-13T16:55:52;10.00;;;3.03;;
41514;SDS011;27247;48.020;16.720;2022-09-13T17:00:16;7.07;;;3.47;;
41514;SDS011;27247;48.020;16.720;2022-09-13T17:04:29;6.10;;;2.83;;
41514;SDS011;27247;48.020;16.720;2022-09-13T17:08:40;4.87;;;3.47;;
41514;SDS011;27247;48.020;16.720;2022-09-13T17:12:52;5.15;;;3.15;;
41514;SDS011;27247;48.020;16.720;2022-09-13T17:17:02;3.08;;;2.78;;
41514;SDS011;27247;48.020;16.720;2022-09-13T17:21:13;4.78;;;2.90;;
41514;SDS011;27247;48.020;16.720;2022-09-13T17:25:23;7.35;;;3.17;;
41514;SDS011;27247;48.020;16.720;2022-09-13T17:29:34;3.13;;;2.60;;
41514;SDS011;27247;48.020;16.720;2022-09-13T17:33:45;3.80;;;2.90;;
41514;SDS011;27247;48.020;16.720;2022-09-13T17:37:55;5.05;;;2.65;;
41514;SDS011;27247;48.020;16.720;2022-09-13T17:42:06;3.80;;;2.67;;
41514;SDS011;27247;48.020;16.720;2022-09-13T17:46:17;4.70;;;3.00;;
41514;SDS011;27247;48.020;16.720;2022-09-13T17:50:32;4.57;;;3.08;;
41514;SDS011;27247;48.020;16.720;2022-09-13T17:54:42;4.63;;;3.10;;
41514;SDS011;27247;48.020;16.720;2022-09-13T17:58:52;3.65;;;3.00;;
41514;SDS011;27247;48.020;16.720;2022-09-13T18:03:03;4.63;;;2.78;;
41514;SDS011;27247;48.020;16.720;2022-09-13T18:07:19;4.85;;;2.83;;
41514;SDS011;27247;48.020;16.720;2022-09-13T18:11:30;3.28;;;2.65;;
41514;SDS011;27247;48.020;16.720;2022-09-13T18:15:40;10.23;;;3.40;;
41514;SDS011;27247;48.020;16.720;2022-09-13T18:19:50;4.00;;;2.80;;
41514;SDS011;27247;48.020;16.720;2022-09-13T18:24:01;6.97;;;2.77;;
41514;SDS011;27247;48.020;16.720;2022-09-13T18:28:11;3.13;;;2.80;;
41514;SDS011;27247;48.020;16.720;2022-09-13T18:32:21;5.40;;;3.47;;
41514;SDS011;27247;48.020;16.720;2022-09-13T18:36:32;4.87;;;3.03;;
41514;SDS011;27247;48.020;16.720;2022-09-13T18:40:44;3.75;;;3.08;;
41514;SDS011;27247;48.020;16.720;2022-09-13T18:44:54;4.63;;;3.00;;
41514;SDS011;27247;48.020;16.720;2022-09-13T18:49:05;4.20;;;2.77;;
41514;SDS011;27247;48.020;16.720;2022-09-13T18:53:16;4.13;;;3.13;;
41514;SDS011;27247;48.020;16.720;2022-09-13T18:57:26;4.00;;;2.80;;
41514;SDS011;27247;48.020;16.720;2022-09-13T19:01:38;5.45;;;3.20;;
41514;SDS011;27247;48.020;16.720;2022-09-13T19:05:50;5.20;;;3.10;;
41514;SDS011;27247;48.020;16.720;2022-09-13T19:10:01;5.68;;;3.22;;
41514;SDS011;27247;48.020;16.720;2022-09-13T19:14:29;4.53;;;2.93;;
41514;SDS011;27247;48.020;16.720;2022-09-13T19:18:41;10.57;;;3.17;;
41514;SDS011;27247;48.020;16.720;2022-09-13T19:22:53;8.23;;;3.00;;
41514;SDS011;27247;48.020;16.720;2022-09-13T19:27:04;9.30;;;3.05;;
41514;SDS011;27247;48.020;16.720;2022-09-13T19:31:14;4.70;;;3.00;;
41514;SDS011;27247;48.020;16.720;2022-09-13T19:35:24;5.45;;;3.42;;
41514;SDS011;27247;48.020;16.720;2022-09-13T19:39:35;5.55;;;3.45;;
41514;SDS011;27247;48.020;16.720;2022-09-13T19:43:46;6.97;;;3.20;;
41514;SDS011;27247;48.020;16.720;2022-09-13T19:47:58;7.05;;;3.25;;
41514;SDS011;27247;48.020;16.720;2022-09-13T19:52:08;3.87;;;2.70;;
41514;SDS011;27247;48.020;16.720;2022-09-13T19:56:19;3.50;;;3.00;;
41514;SDS011;27247;48.020;16.720;2022-09-13T20:00:31;5.60;;;3.13;;
41514;SDS011;27247;48.020;16.720;2022-09-13T20:04:44;5.75;;;3.20;;
41514;SDS011;27247;48.020;16.720;2022-09-13T20:08:58;4.15;;;2.70;;
41514;SDS011;27247;48.020;16.720;2022-09-13T20:13:09;5.20;;;3.00;;
41514;SDS011;27247;48.020;16.720;2022-09-13T20:17:20;4.47;;;3.30;;
41514;SDS011;27247;48.020;16.720;2022-09-13T20:21:31;4.43;;;2.75;;
41514;SDS011;27247;48.020;16.720;2022-09-13T20:25:43;3.40;;;2.83;;
41514;SDS011;27247;48.020;16.720;2022-09-13T20:29:53;5.95;;;2.78;;
41514;SDS011;27247;48.020;16.720;2022-09-13T20:34:06;3.83;;;2.97;;
41514;SDS011;27247;48.020;16.720;2022-09-13T20:38:17;6.32;;;3.33;;
41514;SDS011;27247;48.020;16.720;2022-09-13T20:42:28;4.47;;;3.13;;
41514;SDS011;27247;48.020;16.720;2022-09-13T20:46:38;5.20;;;3.30;;
41514;SDS011;27247;48.020;16.720;2022-09-13T20:50:56;3.50;;;3.15;;
41514;SDS011;27247;48.020;16.720;2022-09-13T20:55:10;3.60;;;3.28;;
41514;SDS011;27247;48.020;16.720;2022-09-13T20:59:20;3.47;;;3.03;;
41514;SDS011;27247;48.020;16.720;2022-09-13T21:03:35;4.47;;;3.45;;
41514;SDS011;27247;48.020;16.720;2022-09-13T21:07:47;6.72;;;3.15;;
41514;SDS011;27247;48.020;16.720;2022-09-13T21:12:16;3.85;;;3.45;;
41514;SDS011;27247;48.020;16.720;2022-09-13T21:16:28;4.30;;;3.30;;
41514;SDS011;27247;48.020;16.720;2022-09-13T21:20:42;4.57;;;3.28;;
41514;SDS011;27247;48.020;16.720;2022-09-13T21:24:52;4.53;;;3.28;;
41514;SDS011;27247;48.020;16.720;2022-09-13T21:29:02;3.80;;;3.37;;
41514;SDS011;27247;48.020;16.720;2022-09-13T21:33:12;4.33;;;3.50;;
41514;SDS011;27247;48.020;16.720;2022-09-13T21:37:23;5.97;;;3.70;;
41514;SDS011;27247;48.020;16.720;2022-09-13T21:41:34;5.70;;;3.43;;
41514;SDS011;27247;48.020;16.720;2022-09-13T21:45:44;7.47;;;3.00;;
41514;SDS011;27247;48.020;16.720;2022-09-13T21:49:55;3.30;;;3.00;;
41514;SDS011;27247;48.020;16.720;2022-09-13T21:54:06;4.50;;;3.77;;
41514;SDS011;27247;48.020;16.720;2022-09-13T21:58:18;5.60;;;3.38;;
41514;SDS011;27247;48.020;16.720;2022-09-13T22:02:28;4.93;;;3.67;;
41514;SDS011;27247;48.020;16.720;2022-09-13T22:06:39;4.32;;;3.75;;
41514;SDS011;27247;48.020;16.720;2022-09-13T22:10:49;6.03;;;3.60;;
41514;SDS011;27247;48.020;16.720;2022-09-13T22:14:59;5.40;;;3.70;;
41514;SDS011;27247;48.020;16.720;2022-09-13T22:19:10;4.10;;;3.70;;
41514;SDS011;27247;48.020;16.720;2022-09-13T22:23:23;4.90;;;3.67;;
41514;SDS011;27247;48.020;16.720;2022-09-13T22:27:33;5.03;;;3.50;;
41514;SDS011;27247;48.020;16.720;2022-09-13T22:31:44;8.23;;;4.38;;
41514;SDS011;27247;48.020;16.720;2022-09-13T22:35:56;4.60;;;3.33;;
41514;SDS011;27247;48.020;16.720;2022-09-13T22:40:10;5.72;;;3.38;;
41514;SDS011;27247;48.020;16.720;2022-09-13T22:44:21;4.65;;;3.13;;
41514;SDS011;27247;48.020;16.720;2022-09-13T22:48:31;3.87;;;3.17;;
41514;SDS011;27247;48.020;16.720;2022-09-13T22:52:42;5.47;;;3.70;;
41514;SDS011;27247;48.020;16.720;2022-09-13T22:56:52;4.67;;;3.60;;
41514;SDS011;27247;48.020;16.720;2022-09-13T23:01:04;6.07;;;4.07;;
41514;SDS011;27247;48.020;16.720;2022-09-13T23:05:17;7.40;;;3.47;;
41514;SDS011;27247;48.020;16.720;2022-09-13T23:09:27;4.97;;;3.80;;
41514;SDS011;27247;48.020;16.720;2022-09-13T23:13:38;4.77;;;3.70;;
41514;SDS011;27247;48.020;16.720;2022-09-13T23:17:48;3.80;;;3.30;;
41514;SDS011;27247;48.020;16.720;2022-09-13T23:21:59;4.57;;;3.95;;
41514;SDS011;27247;48.020;16.720;2022-09-13T23:26:10;7.27;;;4.00;;
41514;SDS011;27247;48.020;16.720;2022-09-13T23:30:23;4.82;;;3.80;;
41514;SDS011;27247;48.020;16.720;2022-09-13T23:34:34;5.35;;;3.15;;
41514;SDS011;27247;48.020;16.720;2022-09-13T23:38:45;5.07;;;3.73;;
41514;SDS011;27247;48.020;16.720;2022-09-13T23:42:57;4.55;;;3.65;;
41514;SDS011;27247;48.020;16.720;2022-09-13T23:47:08;4.20;;;3.47;;
41514;SDS011;27247;48.020;16.720;2022-09-13T23:51:19;4.45;;;3.50;;
41514;SDS011;27247;48.020;16.720;2022-09-13T23:55:34;4.60;;;3.95;;
41514;SDS011;27247;48.020;16.720;2022-09-13T23:59:44;5.07;;;4.18;;
